Time;durP1;ratioP1;P1;durP2;ratioP2;P2;SDS_P1;SDS_P2;PMS_P1;PMS_P2;Temp;Humidity;BMP_temperature;BMP_pressure;BME280_temperature;BME280_humidity;BME280_pressure;Samples;Min_cycle;Max_cycle;Signal;HPM_P1;HPM_P2
2023/03/08 00:01:23;;;;;;;18.80;12.00;;;;;;;2.56;70.28;98501.35;130419;1276;127862;-72
2023/03/08 00:04:25;;;;;;;20.50;12.20;;;;;;;2.51;70.25;98502.64;130061;1254;115281;-69
2023/03/08 00:07:28;;;;;;;18.00;10.80;;;;;;;2.44;70.10;98511.73;130290;1257;115417;-70
2023/03/08 00:10:30;;;;;;;17.50;11.00;;;;;;;2.38;70.38;98515.37;130365;1256;116324;-71
2023/03/08 00:13:32;;;;;;;17.40;10.80;;;;;;;2.33;70.44;98516.14;130441;1256;114795;-72
2023/03/08 00:16:34;;;;;;;16.10;10.40;;;;;;;2.26;70.44;98516.58;130450;1257;114756;-71
2023/03/08 00:19:37;;;;;;;16.20;10.30;;;;;;;2.19;70.57;98523.97;130438;1257;114760;-73
2023/03/08 00:22:41;;;;;;;17.90;11.30;;;;;;;2.15;70.97;98520.46;130305;1254;115687;-73
2023/03/08 00:25:43;;;;;;;17.30;10.60;;;;;;;2.13;71.06;98524.77;130081;1260;115279;-72
2023/03/08 00:28:46;;;;;;;20.20;12.70;;;;;;;2.10;71.12;98525.60;130369;1256;114779;-72
2023/03/08 00:31:48;;;;;;;20.30;13.80;;;;;;;2.07;70.99;98524.83;130476;1256;115160;-67
2023/03/08 00:34:52;;;;;;;17.70;11.20;;;;;;;2.03;71.44;98531.86;130515;1256;114852;-70
2023/03/08 00:37:54;;;;;;;16.50;12.00;;;;;;;2.00;71.29;98523.05;130317;1256;114738;-71
2023/03/08 00:40:56;;;;;;;17.60;12.50;;;;;;;1.95;71.42;98525.51;130237;1254;128044;-70
2023/03/08 00:43:58;;;;;;;18.20;12.70;;;;;;;1.93;71.54;98532.10;130185;1276;114747;-66
2023/03/08 00:47:00;;;;;;;18.80;12.40;;;;;;;1.91;71.78;98531.52;130362;1256;114720;-69
2023/03/08 00:50:02;;;;;;;16.00;11.20;;;;;;;1.88;71.95;98533.24;129972;1256;114790;-71
2023/03/08 00:53:05;;;;;;;18.20;12.40;;;;;;;1.86;72.15;98534.70;130281;1256;114739;-66
2023/03/08 00:56:07;;;;;;;22.30;14.60;;;;;;;1.84;72.18;98531.81;130218;1257;114843;-71
2023/03/08 00:59:09;;;;;;;19.20;13.20;;;;;;;1.82;72.36;98534.88;130268;1254;114802;-69
2023/03/08 01:02:11;;;;;;;16.50;11.30;;;;;;;1.80;72.45;98543.57;129943;1254;127906;-70
2023/03/08 01:05:16;;;;;;;18.00;11.60;;;;;;;1.79;72.61;98548.36;130386;1276;114801;-71
2023/03/08 01:08:20;;;;;;;17.20;11.80;;;;;;;1.78;72.66;98547.70;130151;1260;114922;-72
2023/03/08 01:11:24;;;;;;;20.30;12.80;;;;;;;1.77;72.76;98552.17;130256;1257;114747;-71
2023/03/08 01:14:28;;;;;;;17.30;12.30;;;;;;;1.75;72.77;98557.86;130062;1260;115246;-69
2023/03/08 01:17:31;;;;;;;17.20;11.80;;;;;;;1.72;72.87;98559.26;130063;1256;128328;-71
2023/03/08 01:20:33;;;;;;;16.70;11.30;;;;;;;1.70;72.85;98565.33;130322;1254;115065;-71
2023/03/08 01:23:35;;;;;;;16.80;11.70;;;;;;;1.67;72.98;98570.34;130426;1258;115196;-68
2023/03/08 01:26:37;;;;;;;20.80;11.90;;;;;;;1.64;72.89;98572.59;130252;1254;207795;-73
2023/03/08 01:29:40;;;;;;;23.00;13.50;;;;;;;1.63;73.21;98574.38;130206;1254;114802;-70
2023/03/08 01:32:42;;;;;;;21.90;14.30;;;;;;;1.63;73.36;98567.88;130268;1259;114722;-71
2023/03/08 01:35:44;;;;;;;20.90;14.10;;;;;;;1.62;73.50;98563.85;130408;1256;114792;-69
2023/03/08 01:38:47;;;;;;;21.80;15.00;;;;;;;1.62;73.56;98563.33;130247;1257;127798;-72
2023/03/08 01:41:49;;;;;;;22.60;15.30;;;;;;;1.61;73.87;98561.79;130264;1256;114718;-74
2023/03/08 01:44:54;;;;;;;24.40;14.60;;;;;;;1.60;73.52;98569.02;130368;1257;114776;-71
2023/03/08 01:47:57;;;;;;;21.10;13.60;;;;;;;1.58;73.63;98574.39;130021;1257;114933;-71
2023/03/08 01:51:00;;;;;;;18.70;12.80;;;;;;;1.58;73.81;98581.77;130098;1259;114658;-73
2023/03/08 01:54:07;;;;;;;17.00;12.10;;;;;;;1.58;73.70;98585.33;130070;1259;114773;-73
2023/03/08 01:57:34;;;;;;;15.10;10.50;;;;;;;1.55;73.84;98587.20;130251;1259;116347;-73
2023/03/08 02:00:37;;;;;;;23.00;12.20;;;;;;;1.53;73.65;98592.23;130144;1260;114977;-72
2023/03/08 02:03:39;;;;;;;15.30;10.40;;;;;;;1.51;73.95;98602.30;130148;1278;114753;-74
2023/03/08 02:06:42;;;;;;;18.10;11.10;;;;;;;1.51;73.98;98609.16;130173;1259;114745;-73
2023/03/08 02:09:45;;;;;;;16.70;10.80;;;;;;;1.50;73.95;98605.85;130190;1254;114843;-72
2023/03/08 02:12:47;;;;;;;14.70;9.60;;;;;;;1.49;74.15;98603.98;129860;1259;127953;-73
2023/03/08 02:15:50;;;;;;;18.10;9.50;;;;;;;1.46;74.04;98605.48;130117;1272;114753;-72
2023/03/08 02:18:59;;;;;;;15.60;9.20;;;;;;;1.46;74.05;98612.38;130120;1256;114827;-72
2023/03/08 02:22:09;;;;;;;18.40;9.40;;;;;;;1.44;74.45;98623.17;129786;1264;114783;-73
2023/03/08 02:25:25;;;;;;;12.20;8.60;;;;;;;1.42;74.43;98621.33;130075;1260;114723;-70
2023/03/08 02:28:27;;;;;;;13.70;8.80;;;;;;;1.40;74.14;98614.71;130050;1274;128052;-73
2023/03/08 02:31:30;;;;;;;14.00;8.70;;;;;;;1.38;74.44;98617.60;130002;1260;114753;-72
2023/03/08 02:34:32;;;;;;;13.70;7.80;;;;;;;1.38;74.40;98613.02;130146;1259;114780;-72
2023/03/08 02:37:34;;;;;;;15.70;8.50;;;;;;;1.40;74.38;98614.90;130146;1255;114805;-71
2023/03/08 02:40:37;;;;;;;12.80;8.90;;;;;;;1.39;74.59;98625.66;130082;1269;114812;-73
2023/03/08 02:43:39;;;;;;;15.40;8.50;;;;;;;1.37;74.57;98630.83;130055;1259;114726;-73
2023/03/08 02:46:42;;;;;;;16.80;8.30;;;;;;;1.33;74.68;98636.05;130157;1259;114718;-71
2023/03/08 02:49:44;;;;;;;12.00;7.40;;;;;;;1.32;74.83;98641.23;130278;1276;128985;-73
2023/03/08 02:52:46;;;;;;;9.80;6.60;;;;;;;1.30;74.84;98646.23;130258;1257;114824;-73
2023/03/08 02:55:48;;;;;;;7.80;5.20;;;;;;;1.26;74.75;98641.43;130286;1256;114722;-71
2023/03/08 02:58:51;;;;;;;9.40;6.10;;;;;;;1.24;74.70;98647.84;130257;1256;114737;-73
2023/03/08 03:01:53;;;;;;;11.80;5.20;;;;;;;1.23;74.94;98645.08;130243;1256;114778;-73
2023/03/08 03:04:55;;;;;;;12.50;5.10;;;;;;;1.21;74.86;98653.23;130406;1254;114725;-72
2023/03/08 03:07:58;;;;;;;8.50;5.50;;;;;;;1.20;75.30;98653.79;130241;1254;114895;-70
2023/03/08 03:11:00;;;;;;;7.70;4.30;;;;;;;1.19;75.10;98655.06;130261;1256;114769;-73
2023/03/08 03:14:02;;;;;;;5.30;3.80;;;;;;;1.19;75.00;98651.37;130429;1257;116324;-73
2023/03/08 03:17:04;;;;;;;7.10;4.00;;;;;;;1.18;75.27;98652.64;130363;1276;115150;-72
2023/03/08 03:20:10;;;;;;;10.80;3.90;;;;;;;1.17;75.14;98655.68;130267;1257;115266;-72
2023/03/08 03:23:12;;;;;;;9.70;4.40;;;;;;;1.16;75.24;98659.03;130078;1257;115208;-73
2023/03/08 03:26:17;;;;;;;7.20;4.60;;;;;;;1.17;75.31;98660.05;129925;1261;114895;-70
2023/03/08 03:29:19;;;;;;;;;;;;;;;1.17;75.53;98669.91;130230;1277;129239;-73
2023/03/08 03:32:21;;;;;;;6.30;3.70;;;;;;;1.16;75.64;98676.30;130191;1277;114847;-72
2023/03/08 03:35:23;;;;;;;7.10;4.40;;;;;;;1.14;75.56;98681.81;130197;1257;115354;-71
2023/03/08 03:38:26;;;;;;;6.40;4.10;;;;;;;1.13;75.49;98682.93;130035;1256;114850;-72
2023/03/08 03:41:28;;;;;;;6.90;4.20;;;;;;;1.12;75.63;98684.70;130235;1257;114728;-73
2023/03/08 03:44:31;;;;;;;8.60;4.50;;;;;;;1.12;75.75;98682.77;130219;1254;114728;-71
2023/03/08 03:47:33;;;;;;;6.70;4.10;;;;;;;1.13;75.57;98688.38;130174;1257;115169;-71
2023/03/08 03:50:35;;;;;;;6.30;4.40;;;;;;;1.13;75.70;98690.13;130264;1254;114756;-73
2023/03/08 03:53:38;;;;;;;7.60;4.00;;;;;;;1.13;75.81;98689.74;129970;1260;115173;-72
2023/03/08 03:56:40;;;;;;;5.80;4.10;;;;;;;1.16;75.78;98694.58;130278;1254;115192;-71
2023/03/08 03:59:42;;;;;;;6.60;4.30;;;;;;;1.16;75.58;98692.30;130289;1254;115151;-72
2023/03/08 04:02:44;;;;;;;6.60;3.80;;;;;;;1.17;76.08;98703.70;130241;1256;115227;-73
2023/03/08 04:05:46;;;;;;;7.70;3.80;;;;;;;1.15;76.08;98707.64;130206;1254;114734;-69
2023/03/08 04:08:51;;;;;;;4.80;3.70;;;;;;;1.15;76.00;98705.72;130279;1254;114735;-71
2023/03/08 04:11:53;;;;;;;6.70;3.70;;;;;;;1.14;75.90;98709.25;130237;1256;115182;-69
2023/03/08 04:14:55;;;;;;;5.40;3.80;;;;;;;1.12;75.90;98717.58;130391;1256;114798;-69
2023/03/08 04:17:58;;;;;;;7.80;4.30;;;;;;;1.09;76.13;98723.30;130274;1256;115227;-69
2023/03/08 04:21:00;;;;;;;7.70;3.90;;;;;;;1.07;75.73;98727.45;130238;1254;114750;-72
2023/03/08 04:24:02;;;;;;;7.80;3.70;;;;;;;1.04;75.88;98731.94;130257;1257;114767;-71
2023/03/08 04:27:05;;;;;;;9.80;4.00;;;;;;;1.03;76.11;98730.92;130288;1267;114791;-71
2023/03/08 04:30:08;;;;;;;8.80;5.30;;;;;;;1.02;76.04;98727.59;130268;1256;114814;-71
2023/03/08 04:33:10;;;;;;;7.70;4.30;;;;;;;1.01;76.26;98730.96;129944;1262;115139;-67
2023/03/08 04:36:14;;;;;;;7.30;4.70;;;;;;;1.02;76.22;98738.33;130277;1256;115252;-67
2023/03/08 04:39:16;;;;;;;8.30;4.80;;;;;;;1.02;76.22;98724.45;130337;1256;114664;-71
2023/03/08 04:42:18;;;;;;;6.40;4.50;;;;;;;1.01;76.28;98716.91;130239;1270;114679;-68
2023/03/08 04:45:20;;;;;;;8.80;6.00;;;;;;;0.99;76.41;98719.46;130295;1254;115559;-70
2023/03/08 04:48:23;;;;;;;11.00;6.50;;;;;;;0.99;76.32;98721.91;129899;1276;128022;-71
2023/03/08 04:51:25;;;;;;;9.30;5.90;;;;;;;0.99;76.40;98721.73;130265;1256;114731;-71
2023/03/08 04:54:28;;;;;;;9.00;6.00;;;;;;;1.00;76.61;98725.41;130257;1254;115399;-71
2023/03/08 04:57:30;;;;;;;9.20;7.00;;;;;;;0.99;76.56;98725.27;130300;1256;114706;-73
2023/03/08 05:00:32;;;;;;;15.20;7.10;;;;;;;0.98;76.41;98736.70;130048;1254;114840;-73
2023/03/08 05:03:34;;;;;;;11.10;6.10;;;;;;;0.97;76.52;98745.52;130325;1256;114704;-73
2023/03/08 05:06:36;;;;;;;10.80;6.10;;;;;;;0.97;76.54;98746.77;130472;1256;115093;-72
2023/03/08 05:09:38;;;;;;;8.90;5.40;;;;;;;0.96;76.56;98744.52;130301;1267;128990;-73
2023/03/08 05:12:41;;;;;;;8.40;6.10;;;;;;;0.96;76.68;98741.71;130332;1259;114795;-68
2023/03/08 05:15:43;;;;;;;14.60;6.90;;;;;;;0.96;76.94;98743.98;130353;1256;114718;-71
2023/03/08 05:18:45;;;;;;;11.00;6.40;;;;;;;0.96;76.54;98743.30;130435;1254;114706;-72
2023/03/08 05:21:47;;;;;;;15.50;8.00;;;;;;;0.96;76.75;98745.58;130310;1259;114866;-72
2023/03/08 05:24:49;;;;;;;14.70;7.80;;;;;;;0.97;76.85;98756.63;130371;1266;114752;-72
2023/03/08 05:27:52;;;;;;;13.70;8.70;;;;;;;0.96;76.85;98766.84;129989;1262;114901;-72
2023/03/08 05:31:06;;;;;;;13.70;7.60;;;;;;;0.98;76.96;98763.45;130392;1256;114930;-71
2023/03/08 05:34:10;;;;;;;16.00;9.50;;;;;;;0.98;76.86;98763.77;130388;1256;115301;-71
2023/03/08 05:37:12;;;;;;;17.60;10.60;;;;;;;0.98;76.85;98761.50;130234;1256;114817;-72
2023/03/08 05:40:14;;;;;;;15.40;10.50;;;;;;;0.99;76.88;98765.70;130384;1254;114708;-71
2023/03/08 05:43:17;;;;;;;18.20;11.60;;;;;;;1.00;77.24;98774.44;130529;1256;114789;-72
2023/03/08 05:46:19;;;;;;;18.80;11.70;;;;;;;1.02;76.68;98777.00;130007;1262;114729;-72
2023/03/08 05:49:22;;;;;;;20.30;11.90;;;;;;;1.04;77.18;98778.15;130353;1256;114810;-70
2023/03/08 05:52:24;;;;;;;19.00;12.40;;;;;;;1.07;77.13;98783.68;130452;1256;114748;-71
2023/03/08 05:55:26;;;;;;;23.80;11.60;;;;;;;1.10;77.35;98791.31;130317;1256;115192;-71
2023/03/08 05:58:28;;;;;;;19.40;10.80;;;;;;;1.12;77.50;98789.11;130270;1256;115481;-72
2023/03/08 06:01:30;;;;;;;19.80;11.80;;;;;;;1.15;77.41;98783.22;130325;1254;114758;-71
2023/03/08 06:04:32;;;;;;;22.50;11.10;;;;;;;1.19;77.42;98787.32;130000;1254;114844;-72
2023/03/08 06:07:35;;;;;;;19.60;11.10;;;;;;;1.23;77.49;98792.63;130399;1254;114839;-71
2023/03/08 06:10:37;;;;;;;18.00;10.40;;;;;;;1.27;77.28;98796.36;130253;1259;114819;-71
2023/03/08 06:13:39;;;;;;;17.50;10.80;;;;;;;1.30;77.36;98800.27;130268;1257;128647;-72
2023/03/08 06:16:42;;;;;;;17.50;10.60;;;;;;;1.34;77.02;98802.41;130384;1272;114798;-71
2023/03/08 06:19:45;;;;;;;16.60;10.60;;;;;;;1.39;77.27;98797.00;130269;1272;114751;-69
2023/03/08 06:22:47;;;;;;;15.50;10.30;;;;;;;1.42;77.25;98794.05;130244;1256;115127;-65
2023/03/08 06:25:50;;;;;;;16.80;9.30;;;;;;;1.46;77.29;98796.89;130230;1259;114742;-71
2023/03/08 06:28:52;;;;;;;15.10;9.20;;;;;;;1.50;77.04;98808.71;130179;1257;114753;-73
2023/03/08 06:31:54;;;;;;;16.30;8.60;;;;;;;1.54;77.43;98810.84;130163;1259;115179;-71
2023/03/08 06:34:56;;;;;;;16.00;8.90;;;;;;;1.61;77.27;98816.05;130242;1254;114760;-68
2023/03/08 06:37:58;;;;;;;16.50;8.90;;;;;;;1.67;77.24;98818.29;129911;1263;115049;-71
2023/03/08 06:41:01;;;;;;;17.40;8.70;;;;;;;1.74;77.38;98819.09;130262;1261;114763;-74
2023/03/08 06:44:04;;;;;;;16.30;9.50;;;;;;;1.83;77.34;98822.80;130309;1257;115322;-77
2023/03/08 06:47:06;;;;;;;15.70;9.20;;;;;;;1.91;77.64;98823.90;130151;1253;114872;-73
2023/03/08 06:50:09;;;;;;;14.50;8.90;;;;;;;2.02;77.38;98831.26;130303;1269;114744;-70
2023/03/08 06:53:13;;;;;;;14.20;8.20;;;;;;;2.10;77.20;98829.88;130360;1257;128798;-71
2023/03/08 06:56:16;;;;;;;13.20;8.00;;;;;;;2.20;77.49;98833.91;130596;1254;114796;-69
2023/03/08 06:59:18;;;;;;;11.70;8.10;;;;;;;2.29;77.17;98833.73;130135;1257;114891;-67
2023/03/08 07:02:21;;;;;;;11.80;7.40;;;;;;;2.39;76.81;98837.40;130462;1256;114759;-73
2023/03/08 07:05:23;;;;;;;12.90;7.10;;;;;;;2.49;77.02;98846.52;130305;1252;114723;-72
2023/03/08 07:08:25;;;;;;;10.70;7.10;;;;;;;2.60;76.91;98841.82;130044;1261;114931;-67
2023/03/08 07:11:29;;;;;;;12.50;7.60;;;;;;;2.72;76.76;98838.17;130338;1263;114856;-72
2023/03/08 07:14:32;;;;;;;9.30;5.40;;;;;;;2.82;76.72;98827.91;130172;1259;114862;-74
2023/03/08 07:17:34;;;;;;;9.90;6.70;;;;;;;2.90;76.48;98842.38;130302;1276;115173;-70
2023/03/08 07:20:37;;;;;;;11.80;6.60;;;;;;;3.01;76.49;98836.80;130385;1256;114728;-72
2023/03/08 07:23:39;;;;;;;10.80;7.30;;;;;;;3.11;76.13;98840.79;130303;1254;114728;-68
2023/03/08 07:26:41;;;;;;;14.50;8.80;;;;;;;3.19;76.20;98839.75;130236;1258;114739;-70
2023/03/08 07:29:44;;;;;;;16.00;10.60;;;;;;;3.26;75.96;98850.05;130325;1257;114747;-73
2023/03/08 07:32:46;;;;;;;12.00;8.90;;;;;;;3.30;75.87;98853.20;130525;1257;114787;-73
2023/03/08 07:35:48;;;;;;;11.30;6.90;;;;;;;3.35;75.65;98851.41;130443;1257;114718;-72
2023/03/08 07:38:50;;;;;;;14.10;7.50;;;;;;;3.38;75.39;98858.86;130314;1257;115122;-69
2023/03/08 07:41:53;;;;;;;15.20;7.30;;;;;;;3.45;75.56;98862.29;130277;1269;114731;-73
2023/03/08 07:44:55;;;;;;;14.10;7.70;;;;;;;3.56;75.49;98866.41;130445;1257;114760;-70
2023/03/08 07:47:58;;;;;;;11.90;7.40;;;;;;;3.68;75.55;98866.23;130431;1254;114780;-70
2023/03/08 07:51:06;;;;;;;14.10;7.70;;;;;;;3.79;75.43;98863.08;130070;1262;128240;-74
2023/03/08 07:54:11;;;;;;;13.30;7.80;;;;;;;3.93;75.29;98860.36;130370;1254;115200;-73
2023/03/08 07:57:14;;;;;;;10.60;8.30;;;;;;;4.08;75.21;98855.94;130007;1254;114901;-72
2023/03/08 08:00:17;;;;;;;18.00;10.20;;;;;;;4.25;75.23;98849.49;130389;1256;114805;-73
2023/03/08 08:03:19;;;;;;;33.00;18.00;;;;;;;4.39;75.06;98859.25;130458;1254;114723;-71
2023/03/08 08:06:21;;;;;;;18.20;10.70;;;;;;;4.53;74.95;98861.81;130289;1254;114721;-73
2023/03/08 08:09:24;;;;;;;34.80;15.60;;;;;;;4.66;74.80;98861.14;130580;1256;115419;-72
2023/03/08 08:12:27;;;;;;;22.60;9.70;;;;;;;4.78;74.42;98850.65;130384;1256;115285;-74
2023/03/08 08:15:29;;;;;;;12.00;8.10;;;;;;;4.89;73.90;98853.71;130462;1256;114711;-67
2023/03/08 08:18:33;;;;;;;18.70;8.70;;;;;;;4.98;73.86;98852.52;130391;1256;114741;-73
2023/03/08 08:21:35;;;;;;;13.10;8.00;;;;;;;5.08;73.71;98854.52;130462;1256;114833;-72
2023/03/08 08:24:37;;;;;;;13.90;8.00;;;;;;;5.17;73.63;98858.48;130123;1256;115386;-73
2023/03/08 08:27:39;;;;;;;19.40;8.90;;;;;;;5.29;73.79;98862.14;130382;1254;114772;-69
2023/03/08 08:30:42;;;;;;;11.50;6.50;;;;;;;5.39;73.37;98859.16;130030;1254;115249;-70
2023/03/08 08:33:44;;;;;;;28.80;11.80;;;;;;;5.46;73.02;98864.98;130319;1256;114824;-70
2023/03/08 08:36:46;;;;;;;12.60;7.00;;;;;;;5.48;72.84;98869.10;130369;1256;114753;-72
2023/03/08 08:39:48;;;;;;;10.20;6.90;;;;;;;5.50;72.60;98864.63;130344;1265;114756;-72
2023/03/08 08:42:51;;;;;;;17.00;8.90;;;;;;;5.50;72.37;98866.36;130420;1272;114816;-69
2023/03/08 08:45:56;;;;;;;16.30;8.80;;;;;;;5.54;72.50;98857.14;130464;1270;114754;-69
2023/03/08 08:48:58;;;;;;;16.10;6.20;;;;;;;5.59;72.37;98852.26;130347;1256;128938;-71
2023/03/08 08:52:00;;;;;;;13.80;6.80;;;;;;;5.62;72.31;98859.89;130335;1256;114773;-68
2023/03/08 08:55:03;;;;;;;9.40;6.10;;;;;;;5.69;72.19;98854.58;130338;1256;114817;-70
2023/03/08 08:58:06;;;;;;;10.90;6.70;;;;;;;5.77;72.23;98838.90;129976;1256;114750;-69
2023/03/08 09:01:23;;;;;;;16.20;7.10;;;;;;;5.87;71.91;98846.55;130214;1270;114712;-63
2023/03/08 09:04:25;;;;;;;11.80;6.80;;;;;;;6.01;71.78;98841.23;130045;1254;114936;-62
2023/03/08 09:07:27;;;;;;;9.50;5.80;;;;;;;6.12;71.28;98837.28;130050;1253;114718;-61
2023/03/08 09:10:35;;;;;;;10.80;5.50;;;;;;;6.24;71.01;98841.40;129857;1259;114827;-62
2023/03/08 09:13:40;;;;;;;11.40;6.80;;;;;;;6.34;70.58;98839.92;130148;1272;114747;-62
2023/03/08 09:16:42;;;;;;;;;;;;;;;6.49;70.71;98839.48;129770;1259;114819;-62
2023/03/08 09:19:44;;;;;;;15.60;7.70;;;;;;;6.70;71.08;98837.94;130177;1256;115603;-62
2023/03/08 09:22:46;;;;;;;12.70;7.70;;;;;;;6.95;70.64;98832.09;129923;1254;115588;-63
2023/03/08 09:25:56;;;;;;;19.30;9.30;;;;;;;7.15;70.47;98834.27;130149;1261;128336;-65
2023/03/08 09:29:03;;;;;;;11.60;6.80;;;;;;;7.38;70.07;98828.27;130629;1260;114817;-64
2023/03/08 09:32:06;;;;;;;15.90;7.80;;;;;;;7.45;69.15;98826.07;130337;1256;114721;-64
2023/03/08 09:35:09;;;;;;;13.70;7.70;;;;;;;7.50;69.10;98827.74;130286;1272;114727;-64
2023/03/08 09:38:11;;;;;;;13.30;8.40;;;;;;;7.59;69.07;98825.63;130498;1256;114737;-64
2023/03/08 09:41:24;;;;;;;14.00;8.30;;;;;;;7.69;68.92;98823.05;130608;1256;114750;-63
2023/03/08 09:44:44;;;;;;;11.50;7.10;;;;;;;7.80;68.61;98821.66;130507;1257;128784;-66
2023/03/08 09:48:12;;;;;;;11.00;6.90;;;;;;;7.89;68.28;98818.81;130061;1261;115221;-64
2023/03/08 09:51:17;;;;;;;13.30;8.70;;;;;;;8.00;67.98;98812.07;130345;1259;114792;-63
2023/03/08 09:54:22;;;;;;;12.90;7.80;;;;;;;8.04;67.63;98812.20;130318;1259;114827;-63
2023/03/08 09:57:29;;;;;;;13.70;8.40;;;;;;;8.06;67.51;98814.55;130002;1256;114796;-64
2023/03/08 10:00:34;;;;;;;16.00;9.60;;;;;;;7.96;67.03;98804.67;130300;1258;128683;-64
2023/03/08 10:03:49;;;;;;;14.80;10.10;;;;;;;7.92;66.98;98797.63;130127;1262;114737;-63
2023/03/08 10:07:02;;;;;;;13.30;10.10;;;;;;;7.91;66.46;98795.04;129928;1259;115297;-63
2023/03/08 10:10:49;;;;;;;15.70;10.80;;;;;;;7.86;66.99;98787.70;129617;1260;115315;-63
2023/03/08 10:13:53;;;;;;;18.30;11.60;;;;;;;7.87;67.34;98781.96;129301;1275;114853;-64
2023/03/08 10:17:09;;;;;;;16.80;10.30;;;;;;;7.88;66.71;98780.65;129700;1268;127883;-64
2023/03/08 10:20:33;;;;;;;15.60;10.60;;;;;;;7.91;66.63;98777.43;129768;1260;115319;-63
2023/03/08 10:23:39;;;;;;;13.50;10.30;;;;;;;7.98;66.12;98775.58;129879;1263;114853;-65
2023/03/08 10:26:42;;;;;;;14.00;10.20;;;;;;;8.02;65.55;98779.39;129900;1260;114984;-64
2023/03/08 10:29:56;;;;;;;13.00;9.20;;;;;;;8.00;65.61;98773.67;129611;1275;114885;-63
2023/03/08 10:33:00;;;;;;;15.20;9.50;;;;;;;7.95;65.56;98770.73;129845;1266;128349;-64
2023/03/08 10:36:08;;;;;;;14.60;9.40;;;;;;;7.97;65.88;98770.84;129858;1264;115294;-64
2023/03/08 10:39:10;;;;;;;12.10;8.20;;;;;;;8.03;65.90;98766.35;130019;1265;114811;-64
2023/03/08 10:42:14;;;;;;;12.80;8.90;;;;;;;8.11;65.66;98763.36;129918;1263;115280;-64
2023/03/08 10:45:20;;;;;;;11.50;8.80;;;;;;;8.20;65.46;98760.63;129825;1260;116458;-65
2023/03/08 10:48:23;;;;;;;12.30;8.00;;;;;;;8.23;65.11;98754.06;129771;1266;128586;-64
2023/03/08 10:51:27;;;;;;;13.30;10.00;;;;;;;8.23;65.00;98751.22;130130;1259;114737;-63
2023/03/08 10:54:29;;;;;;;13.70;8.80;;;;;;;8.22;64.23;98748.23;130220;1259;114709;-64
2023/03/08 10:57:32;;;;;;;12.30;8.60;;;;;;;8.12;63.73;98755.16;130183;1260;114719;-65
2023/03/08 11:00:37;;;;;;;11.70;7.40;;;;;;;7.97;63.67;98743.87;130320;1259;114711;-64
2023/03/08 11:03:39;;;;;;;10.60;7.80;;;;;;;7.92;64.24;98743.23;129985;1262;126864;-66
2023/03/08 11:06:41;;;;;;;13.30;8.30;;;;;;;7.93;64.07;98736.10;130229;1259;114735;-66
2023/03/08 11:09:44;;;;;;;10.80;8.00;;;;;;;7.92;63.90;98733.81;130356;1273;114740;-66
2023/03/08 11:12:46;;;;;;;12.50;9.00;;;;;;;7.94;63.92;98733.73;130188;1260;115233;-65
2023/03/08 11:16:07;;;;;;;13.60;9.40;;;;;;;7.94;63.93;98727.29;130239;1260;114746;-66
2023/03/08 11:19:22;;;;;;;14.20;9.30;;;;;;;8.03;63.51;98719.62;129909;1262;114861;-66
2023/03/08 11:22:39;;;;;;;15.30;11.10;;;;;;;7.98;63.95;98712.27;130147;1254;128864;-66
2023/03/08 11:26:04;;;;;;;13.30;9.70;;;;;;;7.94;62.85;98707.58;130166;1270;115195;-66
2023/03/08 11:29:30;;;;;;;15.50;10.50;;;;;;;7.90;63.33;98699.29;129972;1279;114757;-65
2023/03/08 11:33:02;;;;;;;16.40;12.60;;;;;;;7.93;63.33;98691.48;129802;1265;114955;-66
2023/03/08 11:36:25;;;;;;;19.40;10.40;;;;;;;7.94;62.50;98686.60;129495;1269;114914;-66
2023/03/08 11:39:32;;;;;;;17.10;12.00;;;;;;;7.69;62.24;98680.55;129070;1272;127712;-66
2023/03/08 11:43:05;;;;;;;19.20;12.40;;;;;;;7.58;62.81;98678.55;129058;1287;115166;-65
2023/03/08 11:46:22;;;;;;;18.80;15.00;;;;;;;7.49;62.37;98674.38;129364;1269;114942;-68
2023/03/08 11:49:58;;;;;;;20.70;15.70;;;;;;;7.34;62.52;98674.95;129101;1270;114917;-67
2023/03/08 11:53:16;;;;;;;23.30;17.00;;;;;;;7.21;62.52;98670.20;128605;1277;114954;-67
2023/03/08 11:56:30;;;;;;;22.00;17.60;;;;;;;7.10;62.92;98667.50;128424;1278;128113;-67
2023/03/08 11:59:36;;;;;;;21.30;16.10;;;;;;;6.97;62.70;98661.54;128756;1286;114865;-66
2023/03/08 12:02:44;;;;;;;15.70;12.10;;;;;;;6.82;62.77;98658.60;128778;1271;115034;-69
2023/03/08 12:05:55;;;;;;;18.00;13.50;;;;;;;6.61;63.09;98654.30;128735;1274;114845;-77
2023/03/08 12:09:11;;;;;;;17.90;13.70;;;;;;;6.57;63.24;98650.10;128934;1268;114851;-73
2023/03/08 12:12:34;;;;;;;19.20;13.40;;;;;;;6.57;63.02;98646.92;128992;1271;128957;-73
2023/03/08 12:15:41;;;;;;;15.30;12.00;;;;;;;6.63;63.73;98643.22;129601;1265;115306;-75
2023/03/08 12:19:05;;;;;;;13.40;10.80;;;;;;;6.76;63.13;98640.48;129577;1261;114883;-75
2023/03/08 12:22:23;;;;;;;19.70;14.40;;;;;;;6.77;63.06;98635.29;129518;1267;114822;-72
2023/03/08 12:25:28;;;;;;;19.20;13.80;;;;;;;6.81;63.21;98630.06;129511;1284;114880;-70
2023/03/08 12:28:35;;;;;;;14.80;12.10;;;;;;;6.84;63.06;98622.95;129438;1265;128216;-70
2023/03/08 12:31:44;;;;;;;17.40;11.80;;;;;;;6.85;63.20;98617.92;130104;1260;114861;-72
2023/03/08 12:34:47;;;;;;;14.70;10.50;;;;;;;6.86;63.08;98611.67;130167;1278;115111;-69
2023/03/08 12:37:57;;;;;;;12.40;9.10;;;;;;;6.87;62.89;98608.02;130217;1259;114871;-71
2023/03/08 12:41:00;;;;;;;10.80;8.00;;;;;;;6.82;62.98;98601.76;130147;1270;114858;-72
2023/03/08 12:44:22;;;;;;;14.30;8.90;;;;;;;6.80;62.88;98598.70;130160;1260;114712;-68
2023/03/08 12:47:24;;;;;;;12.80;8.50;;;;;;;6.80;62.94;98593.55;130029;1266;115393;-68
2023/03/08 12:50:27;;;;;;;9.50;8.10;;;;;;;6.82;63.28;98586.33;130275;1275;114794;-73
2023/03/08 12:53:42;;;;;;;13.50;9.20;;;;;;;6.84;62.86;98580.22;130217;1260;114775;-68
2023/03/08 12:56:50;;;;;;;15.10;10.40;;;;;;;6.73;62.82;98575.39;130298;1265;114797;-70
2023/03/08 12:59:59;;;;;;;11.80;9.00;;;;;;;6.64;63.05;98571.32;130019;1277;127825;-72
2023/03/08 13:03:21;;;;;;;13.90;9.80;;;;;;;6.58;63.31;98565.66;130302;1260;115262;-73
2023/03/08 13:06:24;;;;;;;12.80;9.80;;;;;;;6.54;63.51;98562.69;130218;1260;115444;-69
2023/03/08 13:09:30;;;;;;;13.90;10.70;;;;;;;6.44;63.90;98555.50;130226;1267;114718;-74
2023/03/08 13:12:48;;;;;;;16.90;11.20;;;;;;;6.39;64.26;98553.48;129982;1270;117208;-71
2023/03/08 13:15:50;;;;;;;11.90;9.20;;;;;;;6.29;64.51;98549.09;130179;1260;129158;-70
2023/03/08 13:19:21;;;;;;;14.00;10.00;;;;;;;6.14;64.78;98546.80;130102;1262;114983;-71
2023/03/08 13:23:03;;;;;;;13.30;10.40;;;;;;;5.97;65.18;98537.48;129892;1267;114910;-71
2023/03/08 13:26:45;;;;;;;16.80;11.10;;;;;;;5.94;65.63;98527.77;127837;1260;3259027;-68
2023/03/08 13:29:47;;;;;;;15.00;10.70;;;;;;;5.95;66.02;98526.27;129928;1263;114925;-72
2023/03/08 13:32:50;;;;;;;13.80;10.40;;;;;;;5.96;66.09;98524.67;130274;1260;115211;-71
2023/03/08 13:36:25;;;;;;;13.00;10.30;;;;;;;5.91;65.91;98517.27;130272;1260;115214;-69
2023/03/08 13:39:29;;;;;;;16.40;12.00;;;;;;;5.90;66.05;98511.52;129530;1266;114925;-68
2023/03/08 13:42:31;;;;;;;16.40;11.90;;;;;;;5.96;66.47;98506.91;129575;1267;115764;-71
2023/03/08 13:45:33;;;;;;;14.00;10.20;;;;;;;6.00;65.91;98494.83;129440;1268;114936;-77
2023/03/08 13:48:36;;;;;;;17.80;11.80;;;;;;;6.01;66.12;98492.45;129419;1263;114897;-71
2023/03/08 13:51:38;;;;;;;15.30;10.90;;;;;;;6.03;66.20;98489.19;129515;1268;114924;-72
2023/03/08 13:54:53;;;;;;;20.00;11.30;;;;;;;6.05;66.23;98487.45;129599;1267;115201;-71
2023/03/08 13:57:55;;;;;;;20.40;12.00;;;;;;;6.03;66.02;98487.71;129496;1270;114830;-71
2023/03/08 14:01:14;;;;;;;16.70;11.80;;;;;;;6.02;66.18;98477.67;129518;1268;114822;-72
2023/03/08 14:04:20;;;;;;;15.90;11.70;;;;;;;6.01;66.26;98479.73;129400;1269;114834;-70
2023/03/08 14:07:24;;;;;;;16.70;13.20;;;;;;;5.96;66.41;98476.95;129407;1276;128714;-69
2023/03/08 14:10:40;;;;;;;19.10;14.30;;;;;;;5.87;66.36;98473.39;129415;1267;115017;-70